Highland Center, IA

01:48 PM CDT af September 02, 2014 (GMT -0500)
South | Change Station
CLOSE
Current Station
Personal Weather Stations
Location: Ottumwa, IA
Elevation: 640 ft
Nearby Weather Stations

Elev 640 ft 41.01 °N, 92.42 °W | Updated 7 seconds ago

klor
klor
81.7 °f
Feels Like 84 °f
N
3.3
vint baytevdik vint from mayrev[mv]
Gusts 5.8 mph

haynt
High -- | Low -- °f
--% Chance of Precip.
Yesterday
High -- | Low -- °f
Precip. -- in
6:37 AM 7:40 PM
First Quarter, 54% visible
druk 29.94 in
zeevdikeyt 10.0 mayln
Clouds klor
hitsindeks 84 °f
toypunkt 66 °f
faykhtkeyt 59%
Rainfall 0.00 in
Snow Depth Not available.
UV 9 out of 12
Pollen 9.50 out of 12
Air Quality Not available.
Flu Activity Not available.
METAR KOTM 021753Z AUTO 28007KT 10SM CLR 24/17 A2995 RMK AO2 SLP137 T02390167 10244 20161 55001

More Conditions Fewer Conditions

druk 29.94 in
zeevdikeyt 10.0 mayln
Clouds klor
hitsindeks 84 °f
toypunkt 66 °f
faykhtkeyt 59%
Rainfall 0.00 in
Snow Depth Not available.
UV 9 out of 12
Pollen 9.50 out of 12
Air Quality Not available.
Flu Activity Not available.
METAR KOTM 021753Z AUTO 28007KT 10SM CLR 24/17 A2995 RMK AO2 SLP137 T02390167 10244 20161 55001

More Conditions Fewer Conditions

10-Day Weather Forecast

Almanac

Astronomy

Sep. 02, 2014 Rise Set
Actual Time 6:37 AM CDT 7:40 PM CDT
Civil Twilight 6:09 AM CDT 8:08 PM CDT
Nautical Twilight 5:35 AM CDT 8:42 PM CDT
Astronomical Twilight 5:00 AM CDT 9:17 PM CDT
Moon 2:25 PM CDT Nito keyn levone untergang
Length Of Visible Light 13h 59m
Length of Day
13h 03m
Tomorrow will be 2m 37s shorter.
First Quarter, 54% of the Moon is Illuminated
haynt
First Quarter
Sep 8
Full
Sep 15
Last Quarter
Sep 24
New
Oct 1
First Quarter

Today's Extremes

State Highs State Lows

Community

WunderPhotos

Upload Photos

1,749,743 photos uploaded!

WunderBlogs® & News

By Dr. Jeff Masters
Director of Meteorology, Weather Underground
By Kari Strenfel
Meteorologist, Weather Underground
By Christopher C. Burt
Weather Historian, Weather Underground
September 2, 2014
September 2, 2014
September 2, 2014

Nearby

Snow Depth

Station Depth Elevation
No new snow has been reported.

Earthquake Activity

City Distance Mag. Time & Date
No recent earthquake activity has been reported nearby.
Minimum magnitude displayed is 2.5.

Coastal Water Temperatures

plats temperatur
No Stations Reporting

Nearby Weather Stations